Terminal Aerodrome Forecast
Issued by NWS

Home | Current Version | Previous Version | Graphics & Text | Print | Product List | Glossary On
Versions: 1 2 3 4 5 6 7 8 9 10 11 12 13 14 15 16 17 18 19 20
000
FTUS43 KICT 301300 AAA
TAFSLN
TAF AMD
KSLN 301327Z 3013/0112 18010KT P6SM VCSH OVC060
      TEMPO 3013/3016 SHRA
     FM301700 18013G20KT P6SM BKN080
     FM302300 18015G22KT P6SM VCTS BKN080CB
     FM010400 18012KT P6SM VCSH BKN060=

USA.gov is the U.S. government's official web portal to all federal, state and local government web resources and services.